Latest Weather Observations for Cape Leeuwin

IDW60801

Issued at 9:33 am WST Saturday 24 June 2017 (issued every 30 minutes, with the page automatically refreshed every 10 minutes)

About weather observations | Map of weather stations | Latest weather observations for WA | Other Formats
Station Details ID: 009518 Name: CAPE LEEUWIN Lat: -34.37 Lon: 115.14 Height: 13.0 m
Data from the previous 72 hours. | See also: Recent months at Cape Leeuwin
Date/Time
WST
Temp
°C
App
Temp
°C
Dew
Point
°C
Rel
Hum
%
Delta-T
°C
Wind Press
QNH
hPa
Press
MSL
hPa
Rain since
9am
mm
Dir  Spd
km/h
Gust
km/h
Spd
kts
Gust
kts
24/09:30am 13.3 9.6 11.6 89 0.9 ENE 22 28 12 15 1028.7 1028.7 0.0
24/09:00am 13.1 10.0 11.6 91 0.8 ENE 19 26 10 14 1028.5 1028.5 4.8
24/08:30am 12.4 9.5 11.1 92 0.7 NE 17 20 9 11 1028.4 1028.4 4.8
24/08:00am 13.2 9.1 11.3 88 1.0 ENE 24 30 13 16 1028.0 1028.0 4.4
24/07:30am 13.4 9.2 11.1 86 1.2 E 24 30 13 16 1027.7 1027.7 4.4
24/07:00am 13.3 8.9 11.6 89 0.9 E 26 35 14 19 1027.4 1027.4 4.4
24/06:30am 12.9 11.1 12.0 94 0.5 ENE 13 26 7 14 1027.2 1027.2 4.4
24/06:00am 12.5 9.7 11.4 93 0.6 E 17 20 9 11 1027.1 1027.1 3.0
24/05:30am 12.9 10.3 12.0 94 0.5 E 17 22 9 12 1026.9 1026.9 2.0
24/05:00am 13.0 9.4 11.9 93 0.6 ESE 22 28 12 15 1027.0 1027.0 1.8
24/04:30am 12.9 8.9 11.8 93 0.6 ESE 24 30 13 16 1027.0 1027.0 1.2
24/04:00am 13.2 9.6 11.7 91 0.8 ESE 22 30 12 16 1027.1 1027.1 1.0
24/03:30am 13.2 8.4 11.7 91 0.8 E 28 35 15 19 1027.2 1027.2 1.0
24/03:00am 13.4 10.6 11.3 87 1.1 ENE 17 22 9 12 1027.3 1027.3 0.6
24/02:30am 13.1 9.3 11.0 87 1.1 ENE 22 32 12 17 1027.3 1027.3 0.6
24/02:00am 12.9 9.6 9.5 80 1.7 NE 17 22 9 12 1027.3 1027.3 0.0
24/01:49am 13.3 7.5 9.3 77 2.0 ENE 30 48 16 26 1027.3 1027.3 0.0
24/01:44am 14.4 8.7 9.9 74 2.3 ESE 30 48 16 26 1027.0 1027.0 0.0
24/01:30am 15.8 10.2 8.7 62 3.6 SE 28 35 15 19 1027.1 1027.1 0.0
24/01:00am 15.6 10.5 10.7 72 2.6 ESE 28 35 15 19 1027.0 1027.0 0.0
24/12:30am 15.9 10.0 9.1 64 3.5 ESE 30 41 16 22 1027.0 1027.0 0.0
24/12:00am 15.5 9.2 11.0 74 2.4 E 35 43 19 23 1026.9 1026.9 0.0
 
Date/Time
WST
Temp
°C
App
Temp
°C
Dew
Point
°C
Rel
Hum
%
Delta-T
°C
Wind Press
QNH
hPa
Press
MSL
hPa
Rain since
9am
mm
Dir  Spd
km/h
Gust
km/h
Spd
kts
Gust
kts
23/11:30pm 15.7 9.8 11.2 74 2.4 E 33 41 18 22 1027.0 1027.0 0.0
23/11:16pm 16.3 10.1 9.3 63 3.6 SE 32 50 17 27 1027.0 1027.0 0.0
23/11:00pm 16.2 9.5 7.5 56 4.3 SE 32 43 17 23 1027.1 1027.1 0.0
23/10:59pm 16.2 9.7 8.0 58 4.1 SE 32 46 17 25 1027.1 1027.1 0.0
23/10:30pm 15.7 8.7 10.1 69 2.9 ESE 37 43 20 23 1027.1 1027.1 0.0
23/10:00pm 15.8 9.1 10.9 72 2.6 ESE 37 48 20 26 1026.9 1026.9 0.0
23/09:30pm 16.3 8.5 9.8 65 3.4 ESE 41 50 22 27 1027.0 1027.0 0.0
23/09:00pm 16.3 8.5 9.8 65 3.4 SE 41 50 22 27 1026.8 1026.8 0.0
23/08:30pm 16.0 8.9 10.9 72 2.7 ESE 39 50 21 27 1026.7 1026.7 0.0
23/08:00pm 15.7 7.5 10.4 71 2.8 ESE 44 50 24 27 1026.4 1026.4 0.0
23/07:30pm 15.9 8.7 10.6 71 2.8 ESE 39 48 21 26 1026.4 1026.4 0.0
23/07:00pm 15.7 7.4 9.5 66 3.2 ESE 43 50 23 27 1025.9 1025.9 0.0
23/06:30pm 16.1 7.8 10.0 67 3.2 ESE 44 61 24 33 1025.6 1025.6 0.0
23/06:12pm 15.8 8.0 9.8 67 3.1 ESE 41 59 22 32 1025.5 1025.5 0.0
23/06:00pm 16.3 7.6 10.0 66 3.3 SE 46 57 25 31 1025.2 1025.2 0.0
23/05:30pm 16.1 8.0 10.0 67 3.2 SE 43 54 23 29 1025.0 1025.0 0.0
23/05:00pm 16.2 7.5 8.5 60 3.9 ESE 44 54 24 29 1024.8 1024.8 0.0
23/04:43pm 16.2 8.3 9.4 64 3.5 SE 41 61 22 33 1024.7 1024.7 0.0
23/04:30pm 16.3 7.9 9.5 64 3.5 SE 44 59 24 32 1024.7 1024.7 0.0
23/04:00pm 16.3 7.4 9.1 62 3.7 ESE 46 59 25 32 1024.5 1024.5 0.0
23/03:30pm 16.6 7.7 7.6 55 4.5 ESE 44 57 24 31 1024.5 1024.5 0.0
23/03:00pm 16.9 8.2 8.4 57 4.3 ESE 44 56 24 30 1024.4 1024.4 0.0
23/02:30pm 16.5 7.7 9.6 63 3.6 ESE 46 57 25 31 1024.4 1024.4 0.0
23/02:00pm 16.5 8.0 9.3 62 3.7 SE 44 57 24 31 1024.3 1024.3 0.0
23/01:30pm 16.6 7.4 8.1 57 4.3 ESE 46 57 25 31 1024.4 1024.4 0.0
23/01:00pm 16.9 8.0 9.1 60 4.0 ESE 46 57 25 31 1024.5 1024.5 0.0
23/12:30pm 16.4 7.9 9.4 63 3.6 ESE 44 54 24 29 1024.8 1024.8 0.0
23/12:00pm 16.6 8.0 8.3 58 4.2 ESE 43 52 23 28 1025.1 1025.1 0.0
23/11:30am 16.5 7.7 8.2 58 4.2 ESE 44 57 24 31 1025.5 1025.5 0.0
23/11:00am 16.4 7.2 8.0 57 4.2 ESE 46 59 25 32 1025.6 1025.6 0.0
23/10:30am 16.7 7.8 9.1 61 3.9 SE 46 59 25 32 1025.7 1025.7 0.0
23/10:00am 16.3 7.8 10.8 70 2.9 SE 46 57 25 31 1025.3 1025.3 0.0
23/09:30am 16.2 6.8 10.3 68 3.1 SE 50 65 27 35 1025.0 1025.0 0.0
23/09:01am 16.0 7.4 10.3 69 3.0 SE 46 65 25 35 1024.6 1024.6 0.0
23/09:00am 16.0 7.0 10.1 68 3.1 SE 48 65 26 35 1024.5 1024.5 29.8
23/08:52am 16.1 7.7 11.0 72 2.7 SE 46 65 25 35 1024.5 1024.5 29.8
23/08:30am 15.8 6.8 10.3 70 2.9 SE 48 63 26 34 1024.3 1024.3 29.8
23/08:00am 15.8 5.7 10.5 71 2.8 SE 54 67 29 36 1023.8 1023.8 29.8
23/07:30am 15.6 5.9 10.5 71 2.7 SE 52 67 28 36 1023.6 1023.6 29.8
23/07:00am 15.7 5.4 11.0 73 2.5 SE 56 72 30 39 1023.1 1023.1 29.8
23/06:32am 15.5 5.6 11.2 75 2.3 SE 54 72 29 39 1022.7 1022.7 29.8
23/06:30am 15.6 5.3 11.1 74 2.4 SE 56 72 30 39 1022.7 1022.7 29.8
23/06:23am 15.4 5.4 10.9 74 2.4 SE 54 72 29 39 1022.5 1022.5 29.8
23/06:00am 15.6 4.6 10.5 71 2.7 SE 59 72 32 39 1022.2 1022.2 29.8
23/05:30am 15.6 5.0 10.7 72 2.6 SE 57 74 31 40 1021.8 1021.8 29.8
23/05:07am 15.5 5.6 11.2 75 2.3 SE 54 72 29 39 1021.7 1021.7 29.8
23/05:00am 15.6 5.3 11.1 74 2.4 SE 56 72 30 39 1021.6 1021.6 29.8
23/04:30am 15.7 4.8 11.0 73 2.5 SE 59 76 32 41 1021.4 1021.4 29.8
23/04:16am 15.8 5.6 11.3 74 2.4 SE 56 74 30 40 1021.3 1021.3 29.8
23/04:00am 15.8 5.3 11.1 73 2.5 SE 57 72 31 39 1021.3 1021.3 29.8
23/03:30am 15.8 5.3 10.9 72 2.6 SE 57 72 31 39 1021.3 1021.3 29.8
23/03:14am 15.7 4.8 11.0 73 2.5 SE 59 78 32 42 1021.2 1021.2 29.8
23/03:00am 15.8 4.9 10.9 72 2.6 SE 59 74 32 40 1021.1 1021.1 29.8
23/02:30am 16.0 5.6 11.5 74 2.4 SSE 57 70 31 38 1020.9 1020.9 29.8
23/02:15am 16.0 5.5 10.9 72 2.7 SSE 57 76 31 41 1020.8 1020.8 29.8
23/02:00am 16.0 4.8 11.3 73 2.5 SSE 61 74 33 40 1020.7 1020.7 29.8
23/01:30am 15.9 5.6 11.6 75 2.3 SE 57 70 31 38 1020.5 1020.5 29.8
23/01:00am 16.0 5.6 11.3 73 2.5 SSE 57 70 31 38 1020.6 1020.6 29.8
23/12:46am 15.9 6.3 12.0 77 2.1 SE 54 72 29 39 1020.7 1020.7 29.8
23/12:30am 15.4 4.9 12.3 82 1.7 SE 59 74 32 40 1020.8 1020.8 29.8
23/12:00am 16.2 6.0 11.4 73 2.6 SE 56 74 30 40 1020.6 1020.6 29.8
 
Date/Time
WST
Temp
°C
App
Temp
°C
Dew
Point
°C
Rel
Hum
%
Delta-T
°C
Wind Press
QNH
hPa
Press
MSL
hPa
Rain since
9am
mm
Dir  Spd
km/h
Gust
km/h
Spd
kts
Gust
kts
22/11:30pm 15.8 5.5 11.7 76 2.2 SE 57 85 31 46 1020.3 1020.3 29.6
22/11:02pm 16.2 6.4 11.6 74 2.5 SE 54 74 29 40 1020.1 1020.1 29.6
22/11:00pm 16.0 6.4 12.1 77 2.1 SE 54 67 29 36 1020.1 1020.1 29.6
22/10:30pm 16.0 5.8 11.9 76 2.2 SE 57 76 31 41 1020.2 1020.2 29.6
22/10:00pm 15.4 6.1 13.2 87 1.2 SE 54 76 29 41 1020.0 1020.0 29.4
22/09:30pm 15.7 6.7 12.8 83 1.6 SE 52 76 28 41 1019.5 1019.5 29.4
22/09:00pm 15.0 4.5 13.4 90 0.9 ESE 61 83 33 45 1019.5 1019.5 24.6
22/08:30pm 15.9 6.2 13.0 83 1.6 SE 56 76 30 41 1019.0 1019.0 21.0
22/08:01pm 16.0 6.0 12.1 77 2.1 SE 56 78 30 42 1018.7 1018.7 20.8
22/08:00pm 15.8 6.3 12.3 80 1.9 ESE 54 70 29 38 1018.8 1018.8 20.8
22/07:35pm 15.8 6.6 13.5 86 1.3 ESE 54 82 29 44 1018.4 1018.4 16.6
22/07:30pm 15.5 6.9 13.9 90 0.9 ESE 52 69 28 37 1018.3 1018.3 16.6
22/07:00pm 13.9 3.9 12.6 92 0.7 SE 57 91 31 49 1018.0 1018.0 11.6
22/06:30pm 14.5 4.5 12.7 89 1.0 SE 57 76 31 41 1017.8 1017.8 9.2
22/06:00pm 16.7 7.2 13.5 81 1.8 SE 56 82 30 44 1016.8 1016.8 4.0
22/05:54pm 16.5 7.0 13.5 82 1.7 SE 56 82 30 44 1016.8 1016.8 4.0
22/05:30pm 16.4 6.4 12.8 79 2.0 SE 57 70 31 38 1016.5 1016.5 3.2
22/05:04pm 16.3 8.6 13.4 83 1.6 SE 46 69 25 37 1016.2 1016.2 2.8
22/05:00pm 16.0 7.8 14.1 88 1.1 SE 50 67 27 36 1016.2 1016.2 2.8
22/04:30pm 15.3 5.8 12.4 83 1.6 SE 54 74 29 40 1015.9 1015.9 2.4
22/04:00pm 17.1 6.8 14.1 82 1.7 SE 61 82 33 44 1015.2 1015.2 1.4
22/03:30pm 16.3 5.5 13.6 84 1.5 SE 63 87 34 47 1014.8 1014.8 1.4
22/03:05pm 16.9 7.2 13.7 81 1.8 SE 57 76 31 41 1014.7 1014.7 0.0
22/03:00pm 17.4 6.7 12.7 74 2.6 SE 61 76 33 41 1014.7 1014.7 0.0
22/02:43pm 17.6 7.7 13.0 74 2.6 SE 57 82 31 44 1014.3 1014.3 0.0
22/02:30pm 17.7 7.8 13.1 74 2.6 SE 57 74 31 40 1014.2 1014.2 0.0
22/02:06pm 17.6 7.8 12.8 73 2.7 SE 56 74 30 40 1013.9 1013.9 0.0
22/02:00pm 17.6 7.9 13.1 75 2.5 SE 56 72 30 39 1013.9 1013.9 0.0
22/01:30pm 17.4 7.5 13.1 76 2.4 SE 57 74 31 40 1013.8 1013.8 0.0
22/01:25pm 17.6 8.8 13.5 77 2.3 SE 52 72 28 39 1013.6 1013.6 0.0
22/01:00pm 18.2 10.5 13.4 73 2.7 SE 46 59 25 32 1013.6 1013.6 0.0
22/12:30pm 18.0 9.2 11.0 63 3.8 SE 48 57 26 31 1013.4 1013.4 0.0
22/12:00pm 17.5 9.8 11.4 67 3.3 ESE 43 56 23 30 1013.5 1013.5 0.0
22/11:30am 17.0 9.7 11.7 71 2.9 ESE 41 50 22 27 1013.9 1013.9 0.0
22/11:00am 16.3 9.0 11.7 74 2.5 ESE 41 52 22 28 1013.8 1013.8 0.0
22/10:30am 15.7 7.9 11.2 74 2.4 ESE 43 50 23 27 1013.7 1013.7 0.0
22/10:00am 15.8 8.2 11.9 77 2.1 ESE 43 52 23 28 1013.4 1013.4 0.0
22/09:30am 15.7 7.8 11.4 75 2.3 ESE 44 56 24 30 1013.1 1013.1 0.0
22/09:00am 15.5 8.0 12.0 79 1.9 ESE 43 54 23 29 1012.6 1012.6 4.0
22/08:30am 15.3 8.5 11.8 79 1.9 ESE 39 50 21 27 1012.2 1012.2 4.0
22/08:00am 15.1 7.5 11.8 81 1.8 ESE 43 52 23 28 1011.6 1011.6 4.0
22/07:30am 15.1 6.9 11.8 81 1.8 ESE 46 56 25 30 1011.3 1011.3 4.0
22/07:00am 15.4 8.5 11.5 77 2.1 ESE 39 50 21 27 1010.7 1010.7 4.0
22/06:30am 15.2 7.8 11.3 77 2.1 ESE 41 52 22 28 1010.6 1010.6 4.0
22/06:00am 15.5 8.5 11.2 75 2.3 ESE 39 48 21 26 1010.1 1010.1 4.0
22/05:30am 15.6 8.1 10.7 72 2.6 ESE 41 48 22 26 1009.7 1009.7 4.0
22/05:00am 15.6 8.1 10.9 73 2.5 ESE 41 50 22 27 1009.6 1009.6 4.0
22/04:30am 15.6 9.5 11.7 77 2.1 ESE 35 43 19 23 1009.5 1009.5 4.0
22/04:00am 15.3 8.5 11.8 79 1.9 ESE 39 48 21 26 1009.3 1009.3 4.0
22/03:30am 15.6 8.4 11.9 78 2.0 ESE 41 50 22 27 1009.2 1009.2 3.6
22/03:00am 15.7 8.5 11.8 77 2.1 SE 41 50 22 27 1009.0 1009.0 3.6
22/02:30am 15.7 9.4 12.4 81 1.8 SE 37 46 20 25 1008.9 1008.9 3.6
22/02:00am 15.6 9.1 11.7 77 2.1 ESE 37 46 20 25 1008.6 1008.6 3.6
22/01:30am 15.3 8.5 12.0 81 1.8 E 39 44 21 24 1008.1 1008.1 3.6
22/01:00am 15.2 8.5 12.3 83 1.6 E 39 50 21 27 1007.8 1007.8 3.6
22/12:30am 14.9 8.1 12.1 83 1.5 E 39 46 21 25 1007.6 1007.6 3.6
22/12:00am 15.1 7.8 12.7 85 1.3 E 43 52 23 28 1007.4 1007.4 3.6
 
Date/Time
WST
Temp
°C
App
Temp
°C
Dew
Point
°C
Rel
Hum
%
Delta-T
°C
Wind Press
QNH
hPa
Press
MSL
hPa
Rain since
9am
mm
Dir  Spd
km/h
Gust
km/h
Spd
kts
Gust
kts
21/11:30pm 15.2 7.6 12.5 84 1.5 E 44 56 24 30 1007.1 1007.1 3.6
21/11:00pm 15.2 7.3 12.7 85 1.4 E 46 59 25 32 1006.8 1006.8 3.6
21/10:30pm 14.8 6.7 13.2 90 0.9 E 48 59 26 32 1006.6 1006.6 3.6
21/10:00pm 14.6 5.7 13.0 90 0.9 ENE 52 63 28 34 1006.5 1006.5 3.6
21/09:30pm 15.1 5.4 12.9 87 1.2 E 56 67 30 36 1006.2 1006.2 3.2
21/09:00pm 14.9 5.6 13.1 89 1.0 ENE 54 67 29 36 1005.9 1005.9 3.2
21/08:30pm 15.0 5.8 13.4 90 0.9 E 54 65 29 35 1005.7 1005.7 3.2
21/08:00pm 15.1 5.2 13.1 88 1.1 ENE 57 67 31 36 1005.5 1005.5 3.2
21/07:30pm 14.9 6.0 13.1 89 1.0 ENE 52 65 28 35 1005.5 1005.5 3.2
21/07:00pm 15.0 6.1 13.0 88 1.1 ENE 52 67 28 36 1005.3 1005.3 3.2
21/06:30pm 14.9 6.8 13.3 90 0.9 ENE 48 61 26 33 1005.3 1005.3 3.2
21/06:26pm 14.9 6.4 13.1 89 1.0 ENE 50 69 27 37 1005.3 1005.3 3.2
21/06:00pm 15.1 7.5 13.7 91 0.8 ENE 46 61 25 33 1005.0 1005.0 3.2
21/05:57pm 15.0 8.0 13.6 91 0.8 ENE 43 61 23 33 1005.0 1005.0 3.2
21/05:30pm 14.9 8.5 13.3 90 0.9 ENE 39 46 21 25 1005.5 1005.5 3.2
21/05:05pm 14.8 9.2 13.4 91 0.8 NE 35 54 19 29 1005.7 1005.7 3.2
21/05:00pm 14.7 8.6 13.1 90 0.9 NE 37 54 20 29 1005.6 1005.6 3.2
21/04:44pm 14.7 9.4 13.1 90 0.9 NE 33 52 18 28 1005.9 1005.9 3.2
21/04:30pm 15.0 9.7 13.0 88 1.1 NE 33 48 18 26 1005.8 1005.8 2.8
21/04:00pm 15.1 10.1 13.3 89 1.0 NE 32 52 17 28 1005.9 1005.9 2.8
21/03:54pm 15.2 9.9 13.0 87 1.2 NE 33 52 18 28 1005.7 1005.7 2.8
21/03:30pm 15.2 11.0 13.6 90 0.9 NNE 28 43 15 23 1005.9 1005.9 2.8
21/03:00pm 15.0 10.4 13.4 90 0.9 NE 30 43 16 23 1006.1 1006.1 2.6
21/02:30pm 15.2 9.6 13.4 89 1.0 NE 35 54 19 29 1006.2 1006.2 1.4
21/02:23pm 15.1 10.4 13.3 89 1.0 NE 30 48 16 26 1006.2 1006.2 1.4
21/02:00pm 15.1 9.7 12.9 87 1.2 NE 33 50 18 27 1006.4 1006.4 0.4
21/01:35pm 15.5 9.7 12.8 84 1.5 NNE 35 54 19 29 1007.0 1007.0 0.0
21/01:30pm 15.5 9.0 12.8 84 1.5 NNE 39 54 21 29 1007.0 1007.0 0.0
21/01:08pm 16.0 11.3 13.3 84 1.5 NNE 30 48 16 26 1007.1 1007.1 0.0
21/01:00pm 15.5 10.4 13.0 85 1.4 NNE 32 44 17 24 1007.2 1007.2 0.0
21/12:30pm 16.4 10.9 12.4 77 2.2 NNE 33 57 18 31 1007.6 1007.6 0.0
21/12:00pm 17.4 11.7 11.9 70 3.0 NNE 33 52 18 28 1007.6 1007.6 0.0
21/11:31am 16.6 11.1 12.6 77 2.2 NNE 33 52 18 28 1008.4 1008.4 0.0
21/11:30am 16.7 11.5 12.7 77 2.2 NNE 32 44 17 24 1008.5 1008.5 0.0
21/11:00am 15.8 10.6 13.3 85 1.4 NE 33 43 18 23 1008.6 1008.6 0.0
21/10:30am 15.2 10.5 13.2 88 1.1 NE 30 43 16 23 1009.3 1009.3 0.0
21/10:00am 14.8 9.1 13.0 89 1.0 NE 35 46 19 25 1009.7 1009.7 0.0

Other Formats:

Comma delimited format used in spreadsheet applications
http://www.bom.gov.au/fwo/IDW60801/IDW60801.94601.axf

JavaScript Object Notation format (JSON) in row-major order
http://www.bom.gov.au/fwo/IDW60801/IDW60801.94601.json